createdAt,value
2018-02-05T05:00:29.179Z,0.87
2018-02-05T05:00:54.679Z,0.95
2018-02-05T05:01:20.249Z,0.94
2018-02-05T05:01:45.734Z,0.88
2018-02-05T05:02:11.277Z,0.94
2018-02-05T05:02:36.730Z,0.95
2018-02-05T05:03:02.263Z,0.92
2018-02-05T05:03:27.700Z,0.84
2018-02-05T05:03:53.212Z,0.94
2018-02-05T05:04:18.653Z,0.95
2018-02-05T05:04:44.097Z,0.98
2018-02-05T05:05:09.533Z,0.95
2018-02-05T05:05:35.032Z,0.92
2018-02-05T05:06:43.665Z,0.95
2018-02-05T05:07:09.147Z,0.95
2018-02-05T05:07:34.632Z,0.92
2018-02-05T05:08:00.120Z,0.94
2018-02-05T05:08:25.577Z,0.94
2018-02-05T05:08:51.092Z,0.92
2018-02-05T05:09:16.568Z,1.01
2018-02-05T05:09:42.085Z,0.84
2018-02-05T05:10:07.562Z,0.92
2018-02-05T05:10:33.074Z,0.87
2018-02-05T05:10:58.600Z,0.94
2018-02-05T05:11:24.095Z,0.94
2018-02-05T05:11:49.565Z,0.92
2018-02-05T05:12:15.060Z,0.92
2018-02-05T05:12:40.546Z,0.92
2018-02-05T05:13:06.032Z,1.02
2018-02-05T05:13:54.336Z,0.84
2018-02-05T05:14:19.831Z,0.94
2018-02-05T05:14:45.322Z,0.98
2018-02-05T05:15:10.776Z,1.01
2018-02-05T05:15:36.287Z,0.88
2018-02-05T05:16:01.763Z,0.92
2018-02-05T05:16:27.256Z,0.91
2018-02-05T05:16:52.746Z,0.86
2018-02-05T05:17:18.231Z,0.92
2018-02-05T05:17:43.748Z,0.96
2018-02-05T05:18:09.189Z,0.95
2018-02-05T05:18:34.669Z,0.87
2018-02-05T05:19:00.155Z,0.86
2018-02-05T05:19:25.619Z,0.92
2018-02-05T05:19:51.145Z,0.87
2018-02-05T05:20:16.611Z,0.98
2018-02-05T05:20:42.108Z,0.92
2018-02-05T05:21:07.639Z,0.94
2018-02-05T05:21:33.105Z,1.01
2018-02-05T05:21:58.570Z,0.78
2018-02-05T05:22:24.040Z,0.99
2018-02-05T05:22:49.536Z,0.91
2018-02-05T05:23:15.026Z,0.98
2018-02-05T05:23:40.527Z,0.88
2018-02-05T05:24:05.987Z,0.87
2018-02-05T05:24:31.463Z,0.87
2018-02-05T05:24:56.966Z,0.96
2018-02-05T05:25:22.458Z,0.86
2018-02-05T05:25:47.924Z,1.04
2018-02-05T05:26:46.480Z,0.83
2018-02-05T05:27:11.926Z,0.81
2018-02-05T05:27:37.403Z,0.92
2018-02-05T05:28:02.876Z,0.83
2018-02-05T05:28:28.369Z,0.86
2018-02-05T05:28:53.874Z,0.84
2018-02-05T05:29:19.364Z,0.84
2018-02-05T05:29:44.869Z,0.87
2018-02-05T05:30:10.352Z,1.01
2018-02-05T05:31:03.783Z,0.88
2018-02-05T05:31:29.275Z,0.95
2018-02-05T05:31:54.754Z,0.84
2018-02-05T05:32:20.267Z,0.95
2018-02-05T05:32:45.770Z,0.88
2018-02-05T05:33:11.268Z,0.99
2018-02-05T05:33:36.704Z,0.86
2018-02-05T05:34:02.239Z,0.92
2018-02-05T05:34:27.857Z,0.88
2018-02-05T05:34:53.494Z,0.83
2018-02-05T05:35:18.966Z,0.87
2018-02-05T05:35:44.436Z,0.94
2018-02-05T05:36:09.946Z,0.92
2018-02-05T05:36:35.429Z,0.88
2018-02-05T05:37:39.000Z,0.94
2018-02-05T05:38:04.485Z,0.87
2018-02-05T05:38:29.983Z,0.88
2018-02-05T05:38:55.477Z,1.01
2018-02-05T05:39:43.768Z,0.98
2018-02-05T05:40:09.253Z,0.87
2018-02-05T05:41:08.000Z,0.86
2018-02-05T05:41:33.482Z,0.88
2018-02-05T05:41:58.978Z,1.02
2018-02-05T05:42:24.460Z,0.98
2018-02-05T05:43:12.788Z,0.86
2018-02-05T05:43:38.296Z,0.84
2018-02-05T05:44:03.794Z,0.92
2018-02-05T05:44:29.295Z,0.92
2018-02-05T05:44:54.785Z,0.95
2018-02-05T05:45:20.270Z,1.01
2018-02-05T05:45:45.865Z,1.01
2018-02-05T05:46:11.363Z,0.95
2018-02-05T05:47:04.767Z,0.94
2018-02-05T05:47:30.259Z,0.98
2018-02-05T05:47:55.761Z,0.94
2018-02-05T05:48:21.231Z,0.94
2018-02-05T05:48:46.701Z,0.95
2018-02-05T05:49:12.267Z,0.96
2018-02-05T05:49:37.735Z,0.95
2018-02-05T05:50:03.207Z,0.98
2018-02-05T05:50:51.496Z,0.96
2018-02-05T05:51:16.957Z,0.95
2018-02-05T05:51:42.463Z,0.95
2018-02-05T05:52:07.952Z,0.95
2018-02-05T05:52:33.456Z,1.01
2018-02-05T05:52:58.966Z,0.99
2018-02-05T05:53:24.476Z,0.92
2018-02-05T05:53:49.968Z,0.99
2018-02-05T05:54:15.498Z,0.95
2018-02-05T05:54:40.927Z,0.94
2018-02-05T05:55:06.480Z,0.98
2018-02-05T05:55:31.943Z,0.99
2018-02-05T05:55:57.509Z,0.96
2018-02-05T05:57:06.523Z,0.99
2018-02-05T05:57:31.979Z,0.92
2018-02-05T05:57:57.447Z,1.02
2018-02-05T05:58:22.923Z,0.92
2018-02-05T05:58:48.499Z,1.01
2018-02-05T05:59:13.990Z,0.95
2018-02-05T05:59:39.416Z,1.01
2018-02-05T06:00:04.995Z,0.98
2018-02-05T06:00:30.421Z,0.92
2018-02-05T06:00:55.927Z,0.94
2018-02-05T06:01:21.414Z,0.95
2018-02-05T06:01:46.906Z,0.98
2018-02-05T06:02:45.480Z,0.95
2018-02-05T06:03:10.980Z,0.96
2018-02-05T06:03:36.493Z,0.95
2018-02-05T06:04:01.991Z,0.92
2018-02-05T06:04:27.476Z,0.98
2018-02-05T06:04:52.948Z,0.98
2018-02-05T06:05:18.456Z,0.96
2018-02-05T06:05:43.953Z,0.99
2018-02-05T06:06:09.434Z,0.96
2018-02-05T06:06:34.934Z,0.96
2018-02-05T06:07:00.417Z,0.98
2018-02-05T06:07:25.950Z,0.99
2018-02-05T06:07:51.526Z,1.02
2018-02-05T06:08:17.056Z,0.99
2018-02-05T06:08:42.529Z,0.99
2018-02-05T06:09:08.003Z,0.95
2018-02-05T06:09:33.501Z,1.01
2018-02-05T06:09:58.989Z,0.99
2018-02-05T06:10:24.476Z,0.94
2018-02-05T06:10:49.967Z,0.92
2018-02-05T06:11:15.454Z,0.96
2018-02-05T06:11:40.959Z,0.96
2018-02-05T06:12:06.400Z,0.96
2018-02-05T06:12:31.855Z,0.92
2018-02-05T06:12:57.347Z,0.98
2018-02-05T06:13:22.822Z,1.01
2018-02-05T06:13:48.349Z,0.99
2018-02-05T06:14:13.864Z,0.94
2018-02-05T06:14:39.353Z,0.94
2018-02-05T06:15:04.817Z,0.99
2018-02-05T06:15:30.280Z,1.01
2018-02-05T06:15:55.757Z,0.92
2018-02-05T06:16:21.237Z,0.92
2018-02-05T06:16:46.715Z,0.95
2018-02-05T06:17:12.154Z,0.99
2018-02-05T06:17:37.685Z,0.92
2018-02-05T06:18:03.167Z,0.96
2018-02-05T06:19:11.817Z,0.95
2018-02-05T06:19:37.298Z,0.95
2018-02-05T06:20:02.788Z,0.95
2018-02-05T06:20:28.270Z,0.94
2018-02-05T06:20:53.772Z,0.96
2018-02-05T06:21:19.187Z,1.01
2018-02-05T06:21:44.693Z,1.01
2018-02-05T06:22:10.173Z,1.04
2018-02-05T06:22:35.639Z,0.95
2018-02-05T06:23:01.103Z,0.96
2018-02-05T06:23:26.649Z,0.96
2018-02-05T06:23:52.081Z,1.01
2018-02-05T06:24:17.616Z,0.99
2018-02-05T06:24:43.078Z,1.02
2018-02-05T06:25:36.520Z,1.02
2018-02-05T06:26:02.107Z,0.96
2018-02-05T06:26:27.483Z,1.02
2018-02-05T06:26:52.927Z,1.02
2018-02-05T06:27:18.483Z,1.01
2018-02-05T06:27:43.886Z,0.99
2018-02-05T06:28:09.452Z,0.98
2018-02-05T06:28:34.942Z,1.02
2018-02-05T06:29:00.351Z,0.99
2018-02-05T06:29:25.867Z,1.05
2018-02-05T06:29:51.362Z,1.01
2018-02-05T06:30:16.867Z,1.05
2018-02-05T06:30:42.350Z,0.98
2018-02-05T06:31:07.772Z,1.02
2018-02-05T06:31:33.287Z,0.95
2018-02-05T06:31:58.795Z,1.01
2018-02-05T06:32:24.225Z,0.98
2018-02-05T06:32:49.655Z,1.02
2018-02-05T06:33:15.105Z,0.96
2018-02-05T06:33:40.555Z,0.94
2018-02-05T06:34:06.032Z,1.04
2018-02-05T06:34:31.481Z,1.05
2018-02-05T06:34:56.947Z,1.01
2018-02-05T06:35:22.415Z,1.02
2018-02-05T06:35:47.909Z,1.02
2018-02-05T06:36:13.344Z,1.05
2018-02-05T06:36:38.895Z,0.99
2018-02-05T06:37:04.263Z,1.06
2018-02-05T06:37:29.767Z,1.06
2018-02-05T06:37:55.183Z,1.08
2018-02-05T06:38:20.672Z,0.98
2018-02-05T06:38:46.072Z,1.02
2018-02-05T06:39:11.512Z,0.98
2018-02-05T06:39:59.837Z,1.04
2018-02-05T06:40:25.312Z,1.05
2018-02-05T06:40:50.768Z,1.06
2018-02-05T06:41:16.251Z,1.02
2018-02-05T06:42:14.764Z,1.05
2018-02-05T06:42:40.228Z,1.02
2018-02-05T06:43:05.742Z,1.04
2018-02-05T06:43:31.225Z,1.05
2018-02-05T06:44:34.816Z,1.06
2018-02-05T06:45:00.288Z,1.04
2018-02-05T06:45:25.753Z,1.06
2018-02-05T06:45:51.205Z,1.01
2018-02-05T06:46:49.700Z,0.99
2018-02-05T06:47:15.192Z,1.08
2018-02-05T06:47:40.687Z,1.08
2018-02-05T06:48:06.123Z,0.99
2018-02-05T06:48:31.604Z,1.05
2018-02-05T06:48:57.092Z,1.08
2018-02-05T06:49:22.559Z,1.1
2018-02-05T06:49:48.033Z,1.05
2018-02-05T06:50:13.488Z,1.1
2018-02-05T06:50:38.927Z,1.1
2018-02-05T06:51:04.421Z,1.08
2018-02-05T06:51:29.855Z,0.99
2018-02-05T06:51:55.341Z,1.08
2018-02-05T06:52:20.836Z,1.06
2018-02-05T06:52:46.297Z,1.06
2018-02-05T06:53:11.774Z,1.06
2018-02-05T06:53:37.256Z,1.06
2018-02-05T06:54:02.701Z,1.08
2018-02-05T06:54:28.199Z,1.06
2018-02-05T06:54:53.694Z,1.14
2018-02-05T06:56:02.485Z,1.01
2018-02-05T06:56:27.966Z,1.02
2018-02-05T06:56:53.412Z,1.14
2018-02-05T06:57:18.890Z,1.05
2018-02-05T06:58:22.457Z,1.05
2018-02-05T06:58:47.942Z,1.02
2018-02-05T06:59:13.450Z,1.12
2018-02-05T06:59:38.941Z,1.13
2018-02-05T07:00:04.445Z,1.06
2018-02-05T07:00:29.917Z,1.08
2018-02-05T07:00:55.386Z,1.14
2018-02-05T07:01:20.884Z,1.06
2018-02-05T07:01:46.367Z,1.02
2018-02-05T07:02:34.669Z,1.13
2018-02-05T07:03:00.165Z,1.13
2018-02-05T07:03:25.656Z,1.13
2018-02-05T07:03:51.134Z,1.16
2018-02-05T07:04:16.601Z,1.06
2018-02-05T07:04:42.095Z,1.05
2018-02-05T07:05:07.572Z,1.02
2018-02-05T07:06:00.998Z,1.04
2018-02-05T07:06:26.537Z,1.04
2018-02-05T07:06:52.076Z,1.1
2018-02-05T07:07:17.562Z,1.16
2018-02-05T07:07:43.140Z,1.16
2018-02-05T07:08:08.650Z,1.06
2018-02-05T07:08:34.153Z,1.22
2018-02-05T07:08:59.632Z,1.19
2018-02-05T07:10:03.573Z,1.14
2018-02-05T07:11:08.110Z,1.05
2018-02-05T07:12:02.520Z,1.14
2018-02-05T07:12:28.113Z,1.17
2018-02-05T07:12:53.630Z,1.17
2018-02-05T07:13:19.071Z,1.2
2018-02-05T07:13:44.562Z,1.17
2018-02-05T07:14:10.027Z,1.23
2018-02-05T07:14:35.472Z,1.16
2018-02-05T07:15:00.951Z,1.24
2018-02-05T07:15:26.399Z,1.23
2018-02-05T07:15:51.871Z,1.19
2018-02-05T07:16:17.340Z,1.2
2018-02-05T07:16:42.797Z,1.19
2018-02-05T07:17:08.370Z,1.2
2018-02-05T07:17:33.827Z,1.23
2018-02-05T07:17:59.207Z,1.22
2018-02-05T07:18:24.718Z,1.22
2018-02-05T07:18:50.136Z,1.2
2018-02-05T07:19:15.608Z,1.23
2018-02-05T07:19:41.101Z,1.22
2018-02-05T07:20:06.596Z,1.24
2018-02-05T07:20:32.035Z,1.19
2018-02-05T07:20:57.579Z,1.19
2018-02-05T07:21:22.966Z,1.24
2018-02-05T07:21:48.453Z,1.24
2018-02-05T07:22:13.893Z,1.28
2018-02-05T07:22:39.368Z,1.16
2018-02-05T07:23:04.843Z,1.19
2018-02-05T07:23:30.321Z,1.23
2018-02-05T07:23:55.808Z,1.24
2018-02-05T07:24:21.280Z,1.23
2018-02-05T07:24:46.772Z,1.3
2018-02-05T07:25:12.255Z,1.3
2018-02-05T07:25:37.718Z,1.24
2018-02-05T07:26:03.168Z,1.26
2018-02-05T07:26:28.690Z,1.3
2018-02-05T07:26:54.173Z,1.31
2018-02-05T07:27:19.652Z,1.24
2018-02-05T07:27:45.117Z,1.31
2018-02-05T07:28:10.615Z,1.32
2018-02-05T07:28:36.127Z,1.31
2018-02-05T07:29:01.634Z,1.3
2018-02-05T07:29:27.103Z,1.31
2018-02-05T07:29:52.580Z,1.26
2018-02-05T07:30:18.097Z,1.28
2018-02-05T07:30:43.587Z,1.26
2018-02-05T07:31:09.061Z,1.24
2018-02-05T07:31:34.530Z,1.28
2018-02-05T07:31:59.993Z,1.17
2018-02-05T07:32:25.488Z,1.31
2018-02-05T07:32:50.965Z,1.31
2018-02-05T07:33:40.273Z,1.31
2018-02-05T07:34:05.877Z,1.34
2018-02-05T07:34:31.390Z,1.28
2018-02-05T07:34:56.944Z,1.26
2018-02-05T07:35:22.416Z,1.32
2018-02-05T07:35:47.879Z,1.31
2018-02-05T07:36:13.303Z,1.28
2018-02-05T07:36:38.743Z,1.28
2018-02-05T07:37:04.214Z,1.31
2018-02-05T07:37:29.687Z,1.28
2018-02-05T07:37:55.154Z,1.34
2018-02-05T07:38:20.630Z,1.3
2018-02-05T07:38:46.104Z,1.24
2018-02-05T07:39:39.541Z,1.3
2018-02-05T07:40:05.003Z,1.3
2018-02-05T07:40:30.492Z,1.31
2018-02-05T07:40:55.957Z,1.35
2018-02-05T07:41:21.450Z,1.34
2018-02-05T07:41:46.987Z,1.31
2018-02-05T07:42:12.485Z,1.31
2018-02-05T07:42:37.961Z,1.31
2018-02-05T07:43:03.440Z,1.32
2018-02-05T07:43:28.940Z,1.3
2018-02-05T07:43:54.396Z,1.31
2018-02-05T07:44:19.895Z,1.3
2018-02-05T07:44:45.355Z,1.3
2018-02-05T07:45:33.695Z,1.31
2018-02-05T07:45:59.182Z,1.28
2018-02-05T07:46:24.683Z,1.31
2018-02-05T07:46:50.260Z,1.37
2018-02-05T07:47:15.693Z,1.37
2018-02-05T07:47:41.196Z,1.32
2018-02-05T07:48:06.691Z,1.37
2018-02-05T07:48:32.143Z,1.4
2018-02-05T07:48:57.787Z,1.4
2018-02-05T07:49:23.295Z,1.38
2018-02-05T07:49:48.737Z,1.35
2018-02-05T07:50:14.237Z,1.38
2018-02-05T07:50:39.642Z,1.35
2018-02-05T07:51:05.200Z,1.38
2018-02-05T07:51:30.663Z,1.35
2018-02-05T07:51:56.128Z,1.31
2018-02-05T07:52:44.430Z,1.34
2018-02-05T07:53:09.922Z,1.35
2018-02-05T07:53:35.415Z,1.35
2018-02-05T07:54:00.899Z,1.37
2018-02-05T07:54:26.375Z,1.37
2018-02-05T07:54:51.850Z,1.37
2018-02-05T07:55:17.385Z,1.4
2018-02-05T07:55:42.811Z,1.38
2018-02-05T07:56:08.308Z,1.38
2018-02-05T07:56:33.888Z,1.42
2018-02-05T07:56:59.492Z,1.34
2018-02-05T07:57:24.908Z,1.4
2018-02-05T07:57:50.393Z,1.31
2018-02-05T07:58:15.894Z,1.44
2018-02-05T07:58:41.295Z,1.34
2018-02-05T07:59:06.779Z,1.37
2018-02-05T07:59:32.256Z,1.35
2018-02-05T07:59:57.690Z,1.28
2018-02-05T08:00:23.173Z,1.35
2018-02-05T08:00:48.635Z,1.35
2018-02-05T08:01:14.111Z,1.38
2018-02-05T08:01:39.587Z,1.35
2018-02-05T08:02:05.117Z,1.34
2018-02-05T08:02:30.617Z,1.44
2018-02-05T08:02:56.051Z,1.31
2018-02-05T08:03:21.481Z,1.34
2018-02-05T08:03:46.965Z,1.32
2018-02-05T08:04:12.415Z,1.34
2018-02-05T08:04:37.867Z,1.34
2018-02-05T08:05:03.333Z,1.32
2018-02-05T08:05:28.750Z,1.32
2018-02-05T08:05:54.238Z,1.31
2018-02-05T08:06:19.699Z,1.37
2018-02-05T08:06:45.131Z,1.34
2018-02-05T08:07:10.574Z,1.35
2018-02-05T08:07:36.055Z,1.34
2018-02-05T08:08:01.519Z,1.37
2018-02-05T08:08:26.978Z,1.35
2018-02-05T08:08:52.444Z,1.38
2018-02-05T08:09:17.950Z,1.35
2018-02-05T08:09:43.419Z,1.38
2018-02-05T08:10:08.950Z,1.31
2018-02-05T08:10:34.382Z,1.32
2018-02-05T08:10:59.903Z,1.37
2018-02-05T08:11:25.401Z,1.34
2018-02-05T08:11:50.803Z,1.37
2018-02-05T08:12:16.288Z,1.34
2018-02-05T08:12:41.715Z,1.35
2018-02-05T08:13:07.215Z,1.35
2018-02-05T08:13:32.681Z,1.35
2018-02-05T08:13:58.139Z,1.32
2018-02-05T08:14:23.575Z,1.34
2018-02-05T08:14:49.030Z,1.31
2018-02-05T08:15:14.451Z,1.32
2018-02-05T08:15:39.906Z,1.37
2018-02-05T08:16:05.422Z,1.37
2018-02-05T08:16:30.961Z,1.35
2018-02-05T08:16:56.453Z,1.26
2018-02-05T08:17:21.959Z,1.28
2018-02-05T08:17:47.466Z,1.38
2018-02-05T08:18:13.006Z,1.4
2018-02-05T08:18:38.481Z,1.42
2018-02-05T08:19:03.964Z,1.41
2018-02-05T08:19:29.506Z,1.41
2018-02-05T08:19:55.013Z,1.35
2018-02-05T08:20:58.603Z,1.35
2018-02-05T08:21:24.109Z,1.37
2018-02-05T08:21:49.616Z,1.28
2018-02-05T08:22:15.089Z,1.31
2018-02-05T08:22:40.583Z,1.37
2018-02-05T08:23:06.075Z,1.38
2018-02-05T08:23:31.589Z,1.38
2018-02-05T08:23:57.062Z,1.35
2018-02-05T08:24:22.537Z,1.35
2018-02-05T08:25:21.053Z,1.32
2018-02-05T08:25:46.533Z,1.41
2018-02-05T08:26:12.036Z,1.32
2018-02-05T08:26:37.520Z,1.38
2018-02-05T08:27:03.012Z,1.35
2018-02-05T08:27:28.454Z,1.42
2018-02-05T08:27:53.985Z,1.44
2018-02-05T08:28:19.459Z,1.49
2018-02-05T08:28:44.958Z,1.48
2018-02-05T08:29:10.467Z,1.49
2018-02-05T08:29:35.923Z,1.44
2018-02-05T08:30:01.401Z,1.42
2018-02-05T08:30:26.903Z,1.48
2018-02-05T08:31:15.241Z,1.45
2018-02-05T08:31:40.702Z,1.49
2018-02-05T08:32:06.228Z,1.49
2018-02-05T08:32:31.746Z,1.56
2018-02-05T08:32:57.271Z,1.49
2018-02-05T08:33:22.791Z,1.56
2018-02-05T08:33:48.335Z,1.5
2018-02-05T08:34:13.823Z,1.49
2018-02-05T08:34:39.234Z,1.59
2018-02-05T08:35:04.696Z,1.55
2018-02-05T08:35:30.162Z,1.52
2018-02-05T08:35:55.642Z,1.55
2018-02-05T08:36:21.108Z,1.55
2018-02-05T08:36:46.622Z,1.5
2018-02-05T08:37:12.106Z,1.55
2018-02-05T08:37:37.591Z,1.59
2018-02-05T08:38:03.054Z,1.53
2018-02-05T08:38:28.540Z,1.63
2018-02-05T08:38:54.004Z,1.62
2018-02-05T08:39:19.521Z,1.6
2018-02-05T08:39:45.008Z,1.58
2018-02-05T08:40:10.482Z,1.63
2018-02-05T08:40:35.964Z,1.59
2018-02-05T08:41:01.446Z,1.55
2018-02-05T08:41:59.950Z,1.59
2018-02-05T08:42:25.446Z,1.62
2018-02-05T08:42:50.946Z,1.67
2018-02-05T08:43:16.441Z,1.66
2018-02-05T08:43:41.925Z,1.63
2018-02-05T08:44:07.440Z,1.67
2018-02-05T08:44:32.947Z,1.67
2018-02-05T08:44:58.455Z,1.66
2018-02-05T08:45:23.953Z,1.63
2018-02-05T08:45:49.433Z,1.73
2018-02-05T08:46:14.934Z,1.73
2018-02-05T08:46:40.424Z,1.63
2018-02-05T08:47:05.927Z,1.63
2018-02-05T08:47:31.412Z,1.71
2018-02-05T08:47:56.922Z,1.73
2018-02-05T08:48:22.424Z,1.74
2018-02-05T08:48:47.914Z,1.73
2018-02-05T08:49:13.368Z,1.71
2018-02-05T08:50:01.664Z,1.74
2018-02-05T08:50:27.135Z,1.8
2018-02-05T08:50:52.589Z,1.74
2018-02-05T08:51:18.068Z,1.81
2018-02-05T08:51:43.537Z,1.74
2018-02-05T08:52:09.037Z,1.81
2018-02-05T08:52:34.569Z,1.78
2018-02-05T08:53:00.042Z,1.78
2018-02-05T08:53:25.532Z,1.8
2018-02-05T08:54:13.826Z,1.8
2018-02-05T08:54:39.324Z,1.73
2018-02-05T08:55:04.793Z,1.8
2018-02-05T08:55:30.239Z,1.8
2018-02-05T08:55:55.734Z,1.87
2018-02-05T08:56:21.211Z,1.77
2018-02-05T08:56:46.701Z,1.74
2018-02-05T08:57:12.169Z,1.81
2018-02-05T08:57:37.727Z,1.85
2018-02-05T08:58:03.196Z,1.81
2018-02-05T08:58:28.700Z,1.81
2018-02-05T08:58:54.190Z,1.81
2018-02-05T08:59:57.757Z,1.89
2018-02-05T09:00:23.239Z,1.81
2018-02-05T09:00:48.721Z,1.91
2018-02-05T09:01:14.243Z,1.92
2018-02-05T09:02:22.915Z,1.77
2018-02-05T09:02:48.390Z,1.87
2018-02-05T09:03:13.877Z,1.78
2018-02-05T09:03:39.333Z,1.78
2018-02-05T09:04:04.868Z,1.87
2018-02-05T09:04:30.398Z,1.78
2018-02-05T09:04:55.876Z,1.76
2018-02-05T09:05:21.360Z,1.92
2018-02-05T09:05:46.838Z,1.89
2018-02-05T09:06:12.367Z,1.84
2018-02-05T09:06:37.831Z,1.8
2018-02-05T09:07:03.323Z,1.81
2018-02-05T09:07:28.808Z,1.94
2018-02-05T09:07:54.311Z,1.91
2018-02-05T09:08:19.788Z,1.8
2018-02-05T09:08:45.282Z,1.91
2018-02-05T09:09:11.162Z,1.77
2018-02-05T09:10:09.804Z,1.88
2018-02-05T09:10:36.569Z,1.88
2018-02-05T09:11:02.416Z,1.91
2018-02-05T09:11:28.568Z,1.85
2018-02-05T09:11:54.686Z,1.77
2018-02-05T09:12:20.956Z,1.78
2018-02-05T09:12:45.963Z,1.81
2018-02-05T09:13:12.071Z,1.81
2018-02-05T09:13:39.655Z,1.85
2018-02-05T09:14:03.613Z,1.85
2018-02-05T09:14:29.734Z,1.88
2018-02-05T09:14:55.944Z,1.89
2018-02-05T09:15:21.634Z,1.77
2018-02-05T09:15:47.451Z,1.89
2018-02-05T09:16:13.478Z,1.89
2018-02-05T09:16:38.927Z,1.89
2018-02-05T09:17:04.432Z,1.85
2018-02-05T09:17:29.918Z,1.84
2018-02-05T09:17:55.353Z,1.78
2018-02-05T09:18:20.842Z,1.88
2018-02-05T09:18:46.304Z,1.92
2018-02-05T09:19:11.799Z,1.89
2018-02-05T09:19:37.346Z,1.94
2018-02-05T09:20:02.852Z,1.92
2018-02-05T09:20:28.348Z,1.95
2018-02-05T09:20:53.847Z,1.91
2018-02-05T09:21:19.314Z,1.94
2018-02-05T09:21:44.838Z,1.88
2018-02-05T09:22:10.300Z,1.88
2018-02-05T09:22:35.817Z,1.95
2018-02-05T09:23:01.318Z,1.84
2018-02-05T09:23:26.801Z,1.91
2018-02-05T09:23:52.317Z,1.95
2018-02-05T09:24:50.844Z,1.85
2018-02-05T09:25:16.361Z,1.95
2018-02-05T09:25:41.800Z,1.92
2018-02-05T09:26:07.307Z,1.84
2018-02-05T09:27:05.797Z,1.92
2018-02-05T09:27:31.284Z,1.84
2018-02-05T09:27:56.793Z,1.85
2018-02-05T09:28:22.269Z,1.91
2018-02-05T09:28:47.769Z,1.84
2018-02-05T09:29:13.250Z,1.88
2018-02-05T09:29:38.733Z,1.88
2018-02-05T09:30:04.211Z,1.95
2018-02-05T09:30:57.634Z,1.94
2018-02-05T09:31:23.117Z,1.94
2018-02-05T09:31:48.646Z,1.89
2018-02-05T09:32:14.124Z,1.91
2018-02-05T09:32:39.643Z,1.99
2018-02-05T09:33:05.200Z,1.97
2018-02-05T09:33:30.616Z,1.95
2018-02-05T09:33:56.125Z,1.95
2018-02-05T09:34:21.618Z,1.92
2018-02-05T09:34:47.171Z,1.95
2018-02-05T09:35:12.693Z,1.94
2018-02-05T09:35:38.185Z,1.91
2018-02-05T09:36:03.682Z,1.91
2018-02-05T09:36:29.183Z,2.02
2018-02-05T09:36:54.654Z,2
2018-02-05T09:37:20.138Z,2.02
2018-02-05T09:37:45.602Z,2.07
2018-02-05T09:38:11.072Z,1.92
2018-02-05T09:38:36.554Z,2.02
2018-02-05T09:39:24.860Z,1.97
2018-02-05T09:39:50.398Z,1.99
2018-02-05T09:40:15.880Z,2
2018-02-05T09:40:41.346Z,1.97
2018-02-05T09:41:06.800Z,2.02
2018-02-05T09:41:32.265Z,2
2018-02-05T09:41:57.732Z,1.95
2018-02-05T09:42:23.230Z,1.99
2018-02-05T09:42:48.698Z,1.97
2018-02-05T09:43:14.217Z,1.97
2018-02-05T09:43:39.714Z,2.06
2018-02-05T09:44:05.176Z,2
2018-02-05T09:44:30.717Z,1.95
2018-02-05T09:44:56.210Z,1.99
2018-02-05T09:45:21.677Z,1.95
2018-02-05T09:45:47.137Z,2.06
2018-02-05T09:46:12.655Z,2.07
2018-02-05T09:46:38.130Z,2.04
2018-02-05T09:47:03.596Z,1.99
2018-02-05T09:48:12.343Z,2
2018-02-05T09:48:37.841Z,2
2018-02-05T09:49:03.339Z,2.07
2018-02-05T09:49:28.842Z,2.07
2018-02-05T09:49:54.339Z,2.08
2018-02-05T09:50:19.824Z,2.08
2018-02-05T09:51:18.312Z,2.11
2018-02-05T09:51:43.781Z,2.11
2018-02-05T09:52:09.261Z,2.14
2018-02-05T09:52:34.752Z,2.11
2018-02-05T09:53:00.272Z,2.14
2018-02-05T09:53:25.773Z,2.08
2018-02-05T09:54:34.433Z,2.13
2018-02-05T09:54:59.926Z,2.1
2018-02-05T09:55:25.409Z,2.14
2018-02-05T09:55:50.892Z,2.11
2018-02-05T09:56:16.362Z,2.15
2018-02-05T09:56:41.861Z,2.13
2018-02-05T09:57:07.345Z,2.15
2018-02-05T09:57:32.857Z,2.14
2018-02-05T09:57:58.298Z,2.15
2018-02-05T09:58:23.780Z,2.13
2018-02-05T09:58:49.257Z,2.2
2018-02-05T09:59:14.718Z,2.15
2018-02-05T09:59:40.205Z,2.18
2018-02-05T10:00:05.665Z,2.17
2018-02-05T10:00:31.121Z,2.15
2018-02-05T10:00:56.599Z,2.17
2018-02-05T10:01:22.075Z,2.11
2018-02-05T10:02:10.379Z,2.13
2018-02-05T10:02:35.867Z,2.1
2018-02-05T10:03:01.346Z,2.13
2018-02-05T10:03:26.830Z,2.06
2018-02-05T10:03:52.279Z,2
2018-02-05T10:04:17.744Z,2
2018-02-05T10:04:43.202Z,2
2018-02-05T10:05:08.695Z,1.99
2018-02-05T10:06:17.347Z,1.95
2018-02-05T10:06:42.846Z,1.94
2018-02-05T10:07:08.364Z,1.99
2018-02-05T10:07:33.858Z,1.94
2018-02-05T10:07:59.339Z,1.99
2018-02-05T10:08:24.830Z,2
2018-02-05T10:09:23.332Z,2.06
2018-02-05T10:09:48.820Z,2.04
2018-02-05T10:10:14.297Z,1.97
2018-02-05T10:10:39.774Z,1.99
2018-02-05T10:11:05.291Z,1.99
2018-02-05T10:11:30.812Z,2
2018-02-05T10:11:56.295Z,1.95
2018-02-05T10:12:21.793Z,2
2018-02-05T10:12:47.295Z,1.94
2018-02-05T10:13:12.790Z,2.06
2018-02-05T10:13:38.261Z,2.02
2018-02-05T10:14:03.755Z,1.99
2018-02-05T10:14:29.266Z,2.02
2018-02-05T10:14:54.741Z,2.02
2018-02-05T10:15:20.246Z,1.97
2018-02-05T10:15:45.720Z,1.99
2018-02-05T10:16:11.222Z,1.95
2018-02-05T10:16:36.727Z,1.95
2018-02-05T10:17:30.156Z,1.99
2018-02-05T10:17:55.660Z,2
2018-02-05T10:18:21.148Z,2.02
2018-02-05T10:18:46.650Z,2.06
2018-02-05T10:19:12.099Z,2.02
2018-02-05T10:19:37.636Z,1.97
2018-02-05T10:20:03.089Z,2.08
2018-02-05T10:20:28.589Z,2.02
2018-02-05T10:20:54.070Z,2
2018-02-05T10:21:19.518Z,2
2018-02-05T10:21:45.049Z,2.04
2018-02-05T10:22:10.555Z,2.08
2018-02-05T10:23:04.010Z,2.08
2018-02-05T10:23:29.501Z,2.04
2018-02-05T10:23:54.960Z,2.13
2018-02-05T10:24:20.482Z,2.1
2018-02-05T10:24:45.905Z,2.11
2018-02-05T10:25:11.382Z,2.15
2018-02-05T10:25:36.877Z,2.1
2018-02-05T10:26:45.547Z,2.14
2018-02-05T10:27:11.036Z,2.11
2018-02-05T10:27:36.539Z,2.14
2018-02-05T10:28:02.005Z,2.08
2018-02-05T10:29:10.660Z,2.11
2018-02-05T10:29:36.400Z,2.13
2018-02-05T10:30:02.000Z,2.06
2018-02-05T10:30:27.478Z,2.13
2018-02-05T10:30:52.965Z,2.07
2018-02-05T10:31:18.395Z,2.04
2018-02-05T10:31:43.888Z,2.04
2018-02-05T10:32:37.310Z,2
2018-02-05T10:33:02.806Z,2.08
2018-02-05T10:33:28.304Z,2.04
2018-02-05T10:33:53.773Z,2.06
2018-02-05T10:34:19.257Z,1.97
2018-02-05T10:34:44.740Z,2.08
2018-02-05T10:35:10.212Z,2.06
2018-02-05T10:36:18.962Z,2.02
2018-02-05T10:36:44.464Z,2
2018-02-05T10:37:09.948Z,1.97
2018-02-05T10:37:35.416Z,2
2018-02-05T10:38:23.698Z,2
2018-02-05T10:38:49.189Z,2
2018-02-05T10:39:14.679Z,2.04
2018-02-05T10:39:40.174Z,2.02
2018-02-05T10:40:05.645Z,1.97
2018-02-05T10:40:31.130Z,2.04
2018-02-05T10:40:56.664Z,2
2018-02-05T10:42:01.302Z,1.97
2018-02-05T10:42:26.812Z,2
2018-02-05T10:42:52.301Z,1.94
2018-02-05T10:43:17.819Z,2
2018-02-05T10:43:43.282Z,2.02
2018-02-05T10:44:08.784Z,2
2018-02-05T10:45:13.984Z,1.97
2018-02-05T10:45:39.555Z,2
2018-02-05T10:46:05.046Z,2.02
2018-02-05T10:46:30.537Z,2.06
2018-02-05T10:46:56.007Z,2.06
2018-02-05T10:47:21.465Z,2.04
2018-02-05T10:47:46.955Z,2.1
2018-02-05T10:48:12.390Z,2.1
2018-02-05T10:48:37.905Z,2.13
2018-02-05T10:49:03.376Z,2.15
2018-02-05T10:49:28.835Z,2.17
2018-02-05T10:50:17.129Z,2.17
2018-02-05T10:50:42.621Z,2.17
2018-02-05T10:51:08.101Z,2.2
2018-02-05T10:51:33.614Z,2.17
2018-02-05T10:51:59.085Z,2.2
2018-02-05T10:52:24.595Z,2.25
2018-02-05T10:52:50.073Z,2.24
2018-02-05T10:53:15.558Z,2.26
2018-02-05T10:53:41.045Z,2.29
2018-02-05T10:54:06.557Z,2.25
2018-02-05T10:54:32.077Z,2.26
2018-02-05T10:54:57.573Z,2.32
2018-02-05T10:55:23.079Z,2.31
2018-02-05T10:55:48.565Z,2.32
2018-02-05T10:56:14.036Z,2.31
2018-02-05T10:57:12.638Z,2.31
2018-02-05T10:57:38.138Z,2.33
2018-02-05T10:58:03.609Z,2.26
2018-02-05T10:58:29.073Z,2.31
2018-02-05T10:58:54.578Z,2.39
2018-02-05T10:59:20.018Z,2.33
2018-02-05T10:59:45.541Z,2.35
2018-02-05T11:00:11.144Z,2.33
2018-02-05T11:00:36.583Z,2.43
2018-02-05T11:01:02.134Z,2.33
2018-02-05T11:01:27.632Z,2.44
2018-02-05T11:01:53.146Z,2.43
2018-02-05T11:02:18.650Z,2.47
2018-02-05T11:02:44.156Z,2.44
2018-02-05T11:03:09.678Z,2.38
2018-02-05T11:03:35.092Z,2.44
2018-02-05T11:04:00.614Z,2.39
2018-02-05T11:04:26.169Z,2.42
2018-02-05T11:04:51.580Z,2.38
2018-02-05T11:05:17.060Z,2.49
2018-02-05T11:05:42.518Z,2.49
2018-02-05T11:06:08.021Z,2.5
2018-02-05T11:07:16.648Z,2.47
2018-02-05T11:07:42.138Z,2.56
2018-02-05T11:08:07.587Z,2.56
2018-02-05T11:08:55.857Z,2.57
2018-02-05T11:09:21.384Z,2.56
2018-02-05T11:09:46.880Z,2.68
2018-02-05T11:10:55.560Z,2.56
2018-02-05T11:11:21.044Z,2.54
2018-02-05T11:11:46.527Z,2.54
2018-02-05T11:12:11.975Z,2.57
2018-02-05T11:13:20.714Z,2.53
2018-02-05T11:14:24.284Z,2.49
2018-02-05T11:14:49.823Z,2.47
2018-02-05T11:15:15.317Z,2.46
2018-02-05T11:15:40.858Z,2.47
2018-02-05T11:16:06.321Z,2.44